createdAt,value
2022-10-14T00:00:16.392Z,18.43
2022-10-14T00:02:46.446Z,18.83
2022-10-14T00:05:19.366Z,16.60
2022-10-14T00:07:49.354Z,21.60
2022-10-14T00:10:19.642Z,27.37
2022-10-14T00:12:50.590Z,24.13
2022-10-14T00:15:20.998Z,24.73
2022-10-14T00:17:51.220Z,27.33
2022-10-14T00:20:24.167Z,24.83
2022-10-14T00:22:55.021Z,27.43
2022-10-14T00:25:26.473Z,21.80
2022-10-14T00:27:57.126Z,26.30
2022-10-14T00:30:27.467Z,24.60
2022-10-14T00:33:00.025Z,25.07
2022-10-14T00:35:32.763Z,24.23
2022-10-14T00:38:02.810Z,21.70
2022-10-14T00:40:32.808Z,20.10
2022-10-14T00:43:02.829Z,21.00
2022-10-14T00:45:32.860Z,20.30
2022-10-14T00:48:02.901Z,19.67
2022-10-14T00:50:36.289Z,19.30
2022-10-14T00:53:06.970Z,19.60
2022-10-14T00:55:37.411Z,19.03
2022-10-14T00:58:08.575Z,16.40
2022-10-14T01:00:42.099Z,17.30
2022-10-14T01:03:13.895Z,16.37
2022-10-14T01:05:59.136Z,17.10
2022-10-14T01:08:38.573Z,18.17
2022-10-14T01:11:19.295Z,16.23
2022-10-14T01:14:00.335Z,18.70
2022-10-14T01:16:47.804Z,21.80
2022-10-14T01:19:51.468Z,20.53
2022-10-14T01:22:31.915Z,18.80
2022-10-14T01:25:17.369Z,18.97
2022-10-14T01:28:23.876Z,16.80
2022-10-14T01:31:03.910Z,20.13
2022-10-14T01:33:43.093Z,20.73
2022-10-14T01:36:21.136Z,20.10
2022-10-14T01:38:57.905Z,20.10
2022-10-14T01:41:33.249Z,17.37
2022-10-14T01:44:10.914Z,19.73
2022-10-14T01:46:53.877Z,19.17
2022-10-14T01:49:33.675Z,17.67
2022-10-14T01:52:12.799Z,18.13
2022-10-14T01:54:47.242Z,20.40
2022-10-14T01:57:25.680Z,18.40
2022-10-14T01:59:58.423Z,17.67
2022-10-14T02:02:31.177Z,18.10
2022-10-14T02:05:01.548Z,18.50
2022-10-14T02:07:40.090Z,18.93
2022-10-14T02:10:23.982Z,18.23
2022-10-14T02:13:11.393Z,20.23
2022-10-14T02:15:55.426Z,19.73
2022-10-14T02:18:40.975Z,20.60
2022-10-14T02:21:24.095Z,21.03
2022-10-14T02:24:05.270Z,22.97
2022-10-14T02:26:37.843Z,22.47
2022-10-14T02:29:09.119Z,24.03
2022-10-14T02:31:44.949Z,23.70
2022-10-14T02:34:23.788Z,26.43
2022-10-14T02:36:56.400Z,24.30
2022-10-14T02:39:33.897Z,23.20
2022-10-14T02:42:04.290Z,23.57
2022-10-14T02:44:37.051Z,23.03
2022-10-14T02:47:07.426Z,21.97
2022-10-14T02:49:40.049Z,24.27
2022-10-14T02:52:10.500Z,22.70
2022-10-14T02:54:43.743Z,21.70
2022-10-14T02:57:14.198Z,22.80
2022-10-14T02:59:44.313Z,21.50
2022-10-14T03:02:14.462Z,20.03
2022-10-14T03:04:47.788Z,21.00
2022-10-14T03:07:17.817Z,21.77
2022-10-14T03:09:52.059Z,20.97
2022-10-14T03:12:22.483Z,19.47
2022-10-14T03:14:53.552Z,20.40
2022-10-14T03:17:24.685Z,21.83
2022-10-14T03:19:59.361Z,20.10
2022-10-14T03:22:29.933Z,19.30
2022-10-14T03:25:00.486Z,20.87
2022-10-14T03:27:40.287Z,18.33
2022-10-14T03:30:15.336Z,19.13
2022-10-14T03:32:58.562Z,19.37
2022-10-14T03:35:52.492Z,18.63
2022-10-14T03:38:29.413Z,20.90
2022-10-14T03:41:02.895Z,18.23
2022-10-14T03:43:33.476Z,19.83
2022-10-14T03:46:03.543Z,19.47
2022-10-14T03:48:34.677Z,18.93
2022-10-14T03:51:07.286Z,18.43
2022-10-14T03:53:38.157Z,19.40
2022-10-14T03:56:09.957Z,21.40
2022-10-14T03:58:40.087Z,20.30
2022-10-14T04:01:15.307Z,21.33
2022-10-14T04:04:11.394Z,22.13
2022-10-14T04:06:44.049Z,20.93
2022-10-14T04:09:14.524Z,19.40
2022-10-14T04:11:45.501Z,19.60
2022-10-14T04:14:31.323Z,21.60
2022-10-14T04:17:02.168Z,22.97
2022-10-14T04:19:32.934Z,21.90
2022-10-14T04:22:07.211Z,23.10
2022-10-14T04:24:37.353Z,23.23
2022-10-14T04:27:07.404Z,24.73
2022-10-14T04:29:43.712Z,23.40
2022-10-14T04:32:20.178Z,22.07
2022-10-14T04:34:50.639Z,23.60
2022-10-14T04:37:26.519Z,24.53
2022-10-14T04:40:14.586Z,24.50
2022-10-14T04:42:49.610Z,22.57
2022-10-14T04:45:27.056Z,23.70
2022-10-14T04:48:02.910Z,22.97
2022-10-14T04:50:33.162Z,21.50
2022-10-14T04:53:25.041Z,23.00
2022-10-14T04:56:10.843Z,23.10
2022-10-14T04:58:51.712Z,20.47
2022-10-14T05:01:22.271Z,21.80
2022-10-14T05:03:52.525Z,22.37
2022-10-14T05:06:22.567Z,23.43
2022-10-14T05:08:58.039Z,23.10
2022-10-14T05:11:28.528Z,24.57
2022-10-14T05:14:00.364Z,21.23
2022-10-14T05:16:34.131Z,20.47
2022-10-14T05:19:04.210Z,22.77
2022-10-14T05:21:35.732Z,19.90
2022-10-14T05:24:18.390Z,20.27
2022-10-14T05:26:49.606Z,18.40
2022-10-14T05:29:19.879Z,22.03
2022-10-14T05:31:52.990Z,21.27
2022-10-14T05:34:37.658Z,23.10
2022-10-14T05:37:11.356Z,20.90
2022-10-14T05:39:52.056Z,22.50
2022-10-14T05:42:25.357Z,21.20
2022-10-14T05:44:58.014Z,22.07
2022-10-14T05:47:28.845Z,21.60
2022-10-14T05:50:03.618Z,20.20
2022-10-14T05:52:35.834Z,20.27
2022-10-14T05:55:17.818Z,21.23
2022-10-14T05:57:49.290Z,19.57
2022-10-14T06:00:25.724Z,21.20
2022-10-14T06:03:03.125Z,16.70
2022-10-14T06:05:33.410Z,19.80
2022-10-14T06:08:03.410Z,20.50
2022-10-14T06:10:37.656Z,20.17
2022-10-14T06:13:07.758Z,20.70
2022-10-14T06:15:40.795Z,20.83
2022-10-14T06:18:11.319Z,18.97
2022-10-14T06:20:41.993Z,21.43
2022-10-14T06:23:11.944Z,20.00
2022-10-14T06:25:44.528Z,21.43
2022-10-14T06:35:48.686Z,20.90
2022-10-14T06:38:19.036Z,21.47
2022-10-14T06:40:53.667Z,20.60
2022-10-14T06:43:24.764Z,19.20
2022-10-14T06:45:55.092Z,19.40
2022-10-14T06:48:25.143Z,17.63
2022-10-14T06:50:55.779Z,19.10
2022-10-14T06:53:25.813Z,18.50
2022-10-14T06:56:04.369Z,19.20
2022-10-14T06:58:35.856Z,19.03
2022-10-14T07:01:07.719Z,20.07
2022-10-14T07:03:39.478Z,20.03
2022-10-14T07:06:11.881Z,19.57
2022-10-14T07:08:42.882Z,16.00
2022-10-14T07:11:15.559Z,17.83
2022-10-14T07:13:46.103Z,16.00
2022-10-14T07:16:16.111Z,16.70
2022-10-14T07:18:46.140Z,15.57
2022-10-14T07:21:16.248Z,14.60
2022-10-14T07:23:46.712Z,15.37
2022-10-14T07:26:19.364Z,15.97
2022-10-14T07:28:49.489Z,16.23
2022-10-14T07:31:19.679Z,14.27
2022-10-14T07:33:49.748Z,14.33
2022-10-14T07:36:22.754Z,13.63
2022-10-14T07:38:53.409Z,14.80
2022-10-14T07:41:28.120Z,14.10
2022-10-14T07:44:06.494Z,12.93
2022-10-14T07:46:40.540Z,13.50
2022-10-14T07:49:14.880Z,13.50
2022-10-14T07:51:45.828Z,12.80
2022-10-14T07:54:18.810Z,12.73
2022-10-14T07:56:52.046Z,13.83
2022-10-14T07:59:23.761Z,11.77
2022-10-14T08:01:56.767Z,12.17
2022-10-14T08:04:28.356Z,12.33
2022-10-14T08:06:58.570Z,11.67
2022-10-14T08:09:28.633Z,12.00
2022-10-14T08:12:01.173Z,11.00
2022-10-14T08:14:31.379Z,12.50
2022-10-14T08:17:01.469Z,10.90
2022-10-14T08:19:31.626Z,13.87
2022-10-14T08:22:01.703Z,12.23
2022-10-14T08:24:31.878Z,12.20
2022-10-14T08:27:07.105Z,11.80
2022-10-14T08:29:37.450Z,11.00
2022-10-14T08:32:07.978Z,12.50
2022-10-14T08:34:38.083Z,12.03
2022-10-14T08:37:08.183Z,11.97
2022-10-14T08:39:38.306Z,11.50
2022-10-14T08:42:33.360Z,12.07
2022-10-14T08:45:11.759Z,11.97
2022-10-14T08:47:47.150Z,11.23
2022-10-14T08:50:29.771Z,11.97
2022-10-14T08:53:07.174Z,11.70
2022-10-14T08:55:42.460Z,9.97
2022-10-14T09:01:25.095Z,10.40
2022-10-14T09:04:01.876Z,7.90
2022-10-14T09:06:34.948Z,7.97
2022-10-14T09:09:14.762Z,6.83
2022-10-14T09:11:51.534Z,8.27
2022-10-14T09:14:29.506Z,7.13
2022-10-14T09:17:09.643Z,7.47
2022-10-14T09:19:50.665Z,7.40
2022-10-14T09:22:21.107Z,7.47
2022-10-14T09:24:51.303Z,7.40
2022-10-14T09:27:25.114Z,9.03
2022-10-14T09:30:03.248Z,8.40
2022-10-14T09:32:39.473Z,8.30
2022-10-14T09:35:18.119Z,7.87
2022-10-14T09:37:48.132Z,9.80
2022-10-14T09:40:26.422Z,10.03
2022-10-14T09:43:04.641Z,8.67
2022-10-14T09:45:53.987Z,7.80
2022-10-14T09:48:37.897Z,9.73
2022-10-14T09:51:12.100Z,10.57
2022-10-14T09:53:49.099Z,9.50
2022-10-14T09:56:31.840Z,8.37
2022-10-14T09:59:02.170Z,8.50
2022-10-14T10:01:42.675Z,9.07
2022-10-14T10:04:35.466Z,8.33
2022-10-14T10:07:09.576Z,8.93
2022-10-14T10:09:39.658Z,7.57
2022-10-14T10:12:26.976Z,8.83
2022-10-14T10:15:03.772Z,10.20
2022-10-14T10:17:40.838Z,9.30
2022-10-14T10:20:28.636Z,9.57
2022-10-14T10:23:00.320Z,10.30
2022-10-14T10:25:31.436Z,9.90
2022-10-14T10:28:02.592Z,9.07
2022-10-14T10:30:46.412Z,8.63
2022-10-14T10:33:41.121Z,9.77
2022-10-14T10:36:26.442Z,9.27
2022-10-14T10:39:03.163Z,9.23
2022-10-14T10:41:53.443Z,8.40
2022-10-14T10:44:42.331Z,8.63
2022-10-14T10:47:35.437Z,8.90
2022-10-14T10:50:31.883Z,8.03
2022-10-14T10:53:43.335Z,8.93
2022-10-14T10:56:33.701Z,7.57
2022-10-14T10:59:43.303Z,7.73
2022-10-14T11:02:57.687Z,7.30
2022-10-14T11:05:48.723Z,8.70
2022-10-14T11:09:06.583Z,9.13
2022-10-14T11:12:10.337Z,8.23
2022-10-14T11:15:21.162Z,8.03
2022-10-14T11:18:01.633Z,8.27
2022-10-14T11:20:50.375Z,7.73
2022-10-14T11:23:49.166Z,7.50
2022-10-14T11:26:45.545Z,7.87
2022-10-14T11:29:41.532Z,7.60
2022-10-14T11:32:24.956Z,7.70
2022-10-14T11:35:17.717Z,8.60
2022-10-14T11:38:21.506Z,6.83
2022-10-14T11:41:04.079Z,6.10
2022-10-14T11:43:49.254Z,5.77
2022-10-14T11:46:24.241Z,5.90
2022-10-14T11:49:00.963Z,7.07
2022-10-14T11:51:40.740Z,6.90
2022-10-14T11:54:21.427Z,6.20
2022-10-14T11:57:00.147Z,8.70
2022-10-14T12:00:05.229Z,7.53
2022-10-14T12:02:54.636Z,7.97
2022-10-14T12:05:37.803Z,6.90
2022-10-14T12:08:23.338Z,5.57
2022-10-14T12:11:04.821Z,4.77
2022-10-14T12:13:42.905Z,5.10
2022-10-14T12:16:18.546Z,5.17
2022-10-14T12:18:55.271Z,5.17
2022-10-14T12:21:38.322Z,4.73
2022-10-14T12:24:14.875Z,3.40
2022-10-14T12:26:58.784Z,3.93
2022-10-14T12:29:34.994Z,4.33
2022-10-14T12:32:24.368Z,3.83
2022-10-14T12:34:56.915Z,3.30
2022-10-14T12:37:52.977Z,4.00
2022-10-14T12:40:36.619Z,3.53
2022-10-14T12:43:21.620Z,2.77
2022-10-14T12:46:12.346Z,3.23
2022-10-14T12:48:53.095Z,3.80
2022-10-14T12:51:28.388Z,2.87
2022-10-14T12:54:10.467Z,3.20
2022-10-14T12:56:47.625Z,3.20
2022-10-14T12:59:30.591Z,3.67
2022-10-14T13:02:05.811Z,3.50
2022-10-14T13:04:36.579Z,4.63
2022-10-14T13:07:42.121Z,3.80
2022-10-14T13:10:48.453Z,3.17
2022-10-14T13:13:53.573Z,4.00
2022-10-14T13:17:05.716Z,3.60
2022-10-14T13:19:47.727Z,3.50
2022-10-14T13:22:42.433Z,3.40
2022-10-14T13:25:31.037Z,3.40
2022-10-14T13:28:25.148Z,3.73
2022-10-14T13:31:07.453Z,3.60
2022-10-14T13:33:47.269Z,3.60
2022-10-14T13:36:26.450Z,3.93
2022-10-14T13:39:02.715Z,3.70
2022-10-14T13:41:34.732Z,4.03
2022-10-14T13:44:05.597Z,3.90
2022-10-14T13:46:42.181Z,4.10
2022-10-14T13:49:20.473Z,3.80
2022-10-14T13:51:55.808Z,3.70
2022-10-14T13:54:28.253Z,3.50
2022-10-14T13:57:43.098Z,3.60
2022-10-14T14:02:51.820Z,3.27
2022-10-14T14:05:37.865Z,3.60
2022-10-14T14:11:18.928Z,2.70
2022-10-14T14:14:01.069Z,2.37
2022-10-14T14:16:39.459Z,2.80
2022-10-14T14:19:21.852Z,2.57
2022-10-14T14:22:07.698Z,2.63
2022-10-14T14:24:37.923Z,2.70
2022-10-14T14:27:08.423Z,2.17
2022-10-14T14:29:39.183Z,2.40
2022-10-14T14:32:09.516Z,3.10
2022-10-14T14:34:42.140Z,2.73
2022-10-14T14:37:55.085Z,2.53
2022-10-14T14:40:22.560Z,2.93
2022-10-14T14:42:56.688Z,2.90
2022-10-14T14:45:30.585Z,3.40
2022-10-14T14:48:06.979Z,2.60
2022-10-14T14:50:43.022Z,2.60
2022-10-14T14:53:21.456Z,2.60
2022-10-14T14:56:11.857Z,2.77
2022-10-14T14:58:52.409Z,3.40
2022-10-14T15:01:26.959Z,2.97
2022-10-14T15:04:13.196Z,5.20
2022-10-14T15:06:51.110Z,4.57
2022-10-14T15:09:39.530Z,3.37
2022-10-14T15:12:20.638Z,3.23
2022-10-14T15:14:53.195Z,3.40
2022-10-14T15:17:34.536Z,3.40
2022-10-14T15:20:35.097Z,3.27
2022-10-14T15:23:05.220Z,2.80
2022-10-14T15:25:35.670Z,2.60
2022-10-14T15:28:06.434Z,2.63
2022-10-14T15:30:51.864Z,3.07
2022-10-14T15:33:24.881Z,3.17
2022-10-14T15:36:02.908Z,3.30
2022-10-14T15:38:33.520Z,2.87
2022-10-14T15:41:07.675Z,3.50
2022-10-14T15:43:39.970Z,5.27
2022-10-14T15:46:29.033Z,5.07
2022-10-14T15:49:23.105Z,4.57
2022-10-14T15:51:56.046Z,4.17
2022-10-14T15:54:27.704Z,3.37
2022-10-14T15:56:58.556Z,3.30
2022-10-14T15:59:29.124Z,3.23
2022-10-14T16:01:59.856Z,3.73
2022-10-14T16:04:31.343Z,3.20
2022-10-14T16:07:03.935Z,3.33
2022-10-14T16:09:33.950Z,3.60
2022-10-14T16:12:04.978Z,3.57
2022-10-14T16:14:35.022Z,4.00
2022-10-14T16:17:05.620Z,7.30
2022-10-14T16:19:36.045Z,3.70
2022-10-14T16:22:12.522Z,3.57
2022-10-14T16:24:43.017Z,3.13
2022-10-14T16:27:13.083Z,2.80
2022-10-14T16:29:43.198Z,4.07
2022-10-14T16:32:15.413Z,5.80
2022-10-14T16:34:45.626Z,4.80
2022-10-14T16:37:18.228Z,5.00
2022-10-14T16:39:49.619Z,3.10
2022-10-14T16:42:19.725Z,4.97
2022-10-14T16:44:49.759Z,4.90
2022-10-14T16:47:20.739Z,6.70
2022-10-14T16:49:53.605Z,3.40
2022-10-14T16:52:26.675Z,3.50
2022-10-14T16:54:57.032Z,4.50
2022-10-14T16:57:27.177Z,5.60
2022-10-14T16:59:57.265Z,5.30
2022-10-14T17:02:31.957Z,4.83
2022-10-14T17:05:02.027Z,4.67
2022-10-14T17:07:34.639Z,5.97
2022-10-14T17:10:05.181Z,4.80
2022-10-14T17:12:35.653Z,5.47
2022-10-14T17:15:05.813Z,5.70
2022-10-14T17:17:36.071Z,6.10
2022-10-14T17:20:06.539Z,5.80
2022-10-14T17:22:39.323Z,5.60
2022-10-14T17:25:11.285Z,6.93
2022-10-14T17:27:41.561Z,5.87
2022-10-14T17:30:13.293Z,7.23
2022-10-14T17:32:43.297Z,5.90
2022-10-14T17:35:15.225Z,6.90
2022-10-14T17:37:49.231Z,5.70
2022-10-14T17:40:19.497Z,6.83
2022-10-14T17:42:50.507Z,5.50
2022-10-14T17:45:20.736Z,6.53
2022-10-14T17:47:50.810Z,7.37
2022-10-14T17:50:22.787Z,9.37
2022-10-14T17:52:58.845Z,7.20
2022-10-14T17:55:28.973Z,7.20
2022-10-14T17:57:59.020Z,9.00
2022-10-14T18:00:29.694Z,9.60
2022-10-14T18:02:59.752Z,9.87
2022-10-14T18:05:30.627Z,8.13
2022-10-14T18:08:03.296Z,7.50
2022-10-14T18:10:33.560Z,8.93
2022-10-14T18:13:04.015Z,7.57
2022-10-14T18:15:36.387Z,8.87
2022-10-14T18:18:07.205Z,8.70
2022-10-14T18:20:39.653Z,8.77
2022-10-14T18:23:12.657Z,9.27
2022-10-14T18:25:42.727Z,11.80
2022-10-14T18:28:12.961Z,8.80
2022-10-14T18:30:43.035Z,7.40
2022-10-14T18:33:13.096Z,9.23
2022-10-14T18:35:46.394Z,6.87
2022-10-14T18:38:21.372Z,4.67
2022-10-14T18:43:30.396Z,3.33
2022-10-14T18:46:13.789Z,4.17
2022-10-14T18:48:46.809Z,3.80
2022-10-14T18:51:18.939Z,3.70
2022-10-14T18:53:51.908Z,4.00
2022-10-14T18:56:25.225Z,4.60
2022-10-14T18:58:59.648Z,3.90
2022-10-14T19:01:30.452Z,4.03
2022-10-14T19:04:01.981Z,3.90
2022-10-14T19:06:32.939Z,4.40
2022-10-14T19:09:06.717Z,4.70
2022-10-14T19:11:37.729Z,3.43
2022-10-14T19:14:08.041Z,4.10
2022-10-14T19:16:40.849Z,4.40
2022-10-14T19:19:16.690Z,4.63
2022-10-14T19:21:48.578Z,4.93
2022-10-14T19:24:21.950Z,4.37
2022-10-14T19:26:54.223Z,5.00
2022-10-14T19:29:24.778Z,6.33
2022-10-14T19:31:55.296Z,4.40
2022-10-14T19:34:27.207Z,5.27
2022-10-14T19:37:00.131Z,3.97
2022-10-14T19:39:32.917Z,4.00
2022-10-14T19:42:03.088Z,3.37
2022-10-14T19:47:23.521Z,4.47
2022-10-14T19:49:53.753Z,4.00
2022-10-14T19:52:23.811Z,4.07
2022-10-14T19:54:56.444Z,3.87
2022-10-14T19:57:26.643Z,4.20
2022-10-14T19:59:56.707Z,4.80
2022-10-14T20:02:26.979Z,3.83
2022-10-14T20:04:57.015Z,4.27
2022-10-14T20:07:27.163Z,4.10
2022-10-14T20:10:02.015Z,4.40
2022-10-14T20:12:33.124Z,5.20
2022-10-14T20:15:03.233Z,4.87
2022-10-14T20:17:33.596Z,4.90
2022-10-14T20:20:03.654Z,5.20
2022-10-14T20:22:35.024Z,5.60
2022-10-14T20:25:09.015Z,4.97
2022-10-14T20:27:39.265Z,5.00
2022-10-14T20:30:11.368Z,6.60
2022-10-14T20:32:41.413Z,6.10
2022-10-14T20:35:15.015Z,6.33
2022-10-14T20:37:45.346Z,6.40
2022-10-14T20:40:18.681Z,6.87
2022-10-14T20:42:48.739Z,6.50
2022-10-14T20:45:19.305Z,5.13
2022-10-14T20:47:53.760Z,5.63
2022-10-14T20:50:24.390Z,5.73
2022-10-14T20:52:54.464Z,5.60
2022-10-14T20:55:27.134Z,6.23
2022-10-14T20:57:57.389Z,5.13
2022-10-14T21:00:27.544Z,4.70
2022-10-14T21:02:57.651Z,6.63
2022-10-14T21:05:27.931Z,5.83
2022-10-14T21:07:58.055Z,6.53
2022-10-14T21:10:30.636Z,7.83
2022-10-14T21:13:00.714Z,5.53
2022-10-14T21:15:31.430Z,6.33
2022-10-14T21:18:01.491Z,6.30
2022-10-14T21:20:31.654Z,5.23
2022-10-14T21:23:01.719Z,6.00
2022-10-14T21:25:34.374Z,6.40
2022-10-14T21:28:04.440Z,4.50
2022-10-14T21:30:34.607Z,4.13
2022-10-14T21:33:04.751Z,4.67
2022-10-14T21:35:34.800Z,5.27
2022-10-14T21:38:04.899Z,4.63
2022-10-14T21:40:37.572Z,5.93
2022-10-14T21:43:07.631Z,6.53
2022-10-14T21:45:37.691Z,5.97
2022-10-14T21:48:08.598Z,5.67
2022-10-14T21:50:38.668Z,5.50
2022-10-14T21:53:11.337Z,6.30
2022-10-14T21:55:46.499Z,6.07
2022-10-14T21:58:16.771Z,4.20
2022-10-14T22:00:46.827Z,5.63
2022-10-14T22:03:17.768Z,5.30
2022-10-14T22:05:47.957Z,5.43
2022-10-14T22:08:23.001Z,5.03
2022-10-14T22:10:55.647Z,5.50
2022-10-14T22:13:25.735Z,5.40
2022-10-14T22:15:56.285Z,5.60
2022-10-14T22:18:27.039Z,5.37
2022-10-14T22:21:06.534Z,4.80
2022-10-14T22:23:40.145Z,5.20
2022-10-14T22:26:16.854Z,4.67
2022-10-14T22:28:47.277Z,5.87
2022-10-14T22:31:20.935Z,4.30
2022-10-14T22:33:52.788Z,5.53
2022-10-14T22:36:28.024Z,5.10
2022-10-14T22:39:01.236Z,4.90
2022-10-14T22:41:35.648Z,5.20
2022-10-14T22:44:08.696Z,5.70
2022-10-14T22:46:41.680Z,5.80
2022-10-14T22:49:12.038Z,5.13
2022-10-14T22:51:43.119Z,6.37
2022-10-14T22:54:14.144Z,5.53
2022-10-14T22:56:46.772Z,5.30
2022-10-14T22:59:16.969Z,5.00
2022-10-14T23:01:46.976Z,4.20
2022-10-14T23:04:17.015Z,4.17
2022-10-14T23:06:49.757Z,4.13
2022-10-14T23:09:20.115Z,3.10
2022-10-14T23:11:52.970Z,2.80
2022-10-14T23:14:22.991Z,3.40
2022-10-14T23:16:53.040Z,2.60
2022-10-14T23:19:23.156Z,2.20
2022-10-14T23:21:53.197Z,2.70
2022-10-14T23:24:23.233Z,2.80
2022-10-14T23:26:55.944Z,2.07
2022-10-14T23:29:25.974Z,2.50
2022-10-14T23:31:56.902Z,1.27
2022-10-14T23:34:26.905Z,2.30
2022-10-14T23:36:57.154Z,2.33
2022-10-14T23:39:27.207Z,1.60
2022-10-14T23:42:00.230Z,2.10
2022-10-14T23:44:31.665Z,1.73
2022-10-14T23:47:01.989Z,1.43
2022-10-14T23:49:32.035Z,1.83
2022-10-14T23:52:02.101Z,1.67
2022-10-14T23:54:32.170Z,1.80
2022-10-14T23:57:04.785Z,1.63
2022-10-14T23:59:34.799Z,1.60
